Flag for Spain

Past Weather in Barcelona, Barcelona, Spain — May 2020

Currently: 59 °F. Partly cloudy. (Weather station: Barcelona Airport, Spain). See more current weather

May 2020 Weather in Barcelona — Graph

°F

High & Low Weather Summary for May 2020

 TemperatureHumidityPressure
High79 °F (May 19, 12:00 pm)100% (May 10, 3:30 am)30.36 "Hg (May 10, 3:30 am)
Low57 °F (May 1, 2:00 am)41% (May 19, 12:30 pm)29.53 "Hg (May 10, 5:00 pm)
Average67 °F74%30.02 "Hg
* Reported May 1 12:00 am — May 31 11:30 pm, Barcelona. Weather by CustomWeather, © 2020

Note: Actual official high and low records may vary slightly from our data, if they occured in-between our weather recording intervals... More about our weather records

Barcelona Weather History for May 1, 2020

Scroll right to see more
 ConditionsComfort  
Time TempWeatherWind HumidityBarometerVisibility
12:00 am
Fri, May 1
63 °FPassing clouds.8 mph73%29.95 "HgN/A
12:30 am61 °FPassing clouds.1 mph72%29.98 "HgN/A
1:00 am59 °FPassing clouds.2 mph77%29.98 "HgN/A
1:30 am59 °FPassing clouds.5 mph77%29.95 "HgN/A
2:00 am57 °FPassing clouds.3 mph77%29.95 "HgN/A
2:30 am57 °FPassing clouds.5 mph82%29.95 "HgN/A
3:00 am59 °FPassing clouds.3 mph77%29.95 "HgN/A
3:30 am63 °FPassing clouds.17 mph64%29.92 "HgN/A
4:00 am63 °FPassing clouds.17 mph59%29.92 "HgN/A
4:30 am64 °FPassing clouds.17 mph56%29.95 "HgN/A
5:00 am64 °FPassing clouds.15 mph52%29.92 "HgN/A
5:30 am63 °FPassing clouds.10 mph59%29.92 "HgN/A
6:00 am64 °FPassing clouds.5 mph52%29.92 "HgN/A
6:30 am63 °FPassing clouds.6 mph56%29.92 "HgN/A
7:00 am63 °FPassing clouds.8 mph59%29.95 "HgN/A
7:30 am63 °FPassing clouds.6 mph59%29.95 "HgN/A
8:00 am66 °FPassing clouds.5 mph56%29.95 "HgN/A
8:30 am66 °FPassing clouds.6 mph56%29.95 "HgN/A
9:00 am68 °FPassing clouds.8 mph53%29.95 "HgN/A
9:30 am70 °FPassing clouds.6 mph53%29.95 "HgN/A
10:00 am70 °FPassing clouds.8 mph53%29.95 "HgN/A
10:30 am72 °FPassing clouds.13 mph53%29.95 "HgN/A
11:00 am72 °FPassing clouds.13 mph50%29.95 "HgN/A
11:30 am72 °FPassing clouds.18 mph57%29.95 "HgN/A
12:00 pm72 °FPassing clouds.22 mph53%29.95 "HgN/A
12:30 pm72 °FPassing clouds.25 mph53%29.95 "HgN/A
1:00 pm72 °FPassing clouds.26 mph57%29.95 "HgN/A
1:30 pm72 °FPassing clouds.28 mph57%29.92 "HgN/A
2:00 pm72 °FPassing clouds.28 mph53%29.92 "HgN/A
2:30 pm72 °FPassing clouds.26 mph53%29.92 "HgN/A
3:00 pm72 °FPassing clouds.24 mph57%29.92 "HgN/A
3:30 pm73 °FPassing clouds.22 mph53%29.92 "HgN/A
4:00 pm73 °FPassing clouds.17 mph50%29.89 "HgN/A
4:30 pm77 °FPassing clouds.23 mph42%29.89 "HgN/A
5:00 pm77 °FPassing clouds.22 mph47%29.89 "HgN/A
5:30 pm77 °FPassing clouds.24 mph44%29.89 "HgN/A
6:00 pm75 °FPassing clouds.29 mph47%29.89 "HgN/A
6:30 pm75 °FPassing clouds.28 mph44%29.89 "HgN/A
7:00 pm72 °FPassing clouds.21 mph57%29.89 "HgN/A
7:30 pm72 °FPassing clouds.22 mph61%29.89 "HgN/A
8:00 pm70 °FPassing clouds.21 mph64%29.89 "HgN/A
8:30 pm70 °FPassing clouds.21 mph64%29.92 "HgN/A
9:00 pm70 °FPassing clouds.15 mph64%29.92 "HgN/A
9:30 pm70 °FPassing clouds.14 mph64%29.92 "HgN/A
10:00 pm68 °FPassing clouds.9 mph69%29.95 "HgN/A
10:30 pm66 °FPassing clouds.8 mph73%29.95 "HgN/A
11:00 pm68 °FClear.2 mph69%29.95 "Hg10 mi
11:30 pm68 °FClear.6 mph69%29.98 "Hg10 mi
Weather by CustomWeather, © 2020

See weather overview